Time;durP1;ratioP1;P1;durP2;ratioP2;P2;SDS_P1;SDS_P2;PMS_P1;PMS_P2;Temp;Humidity;BMP_temperature;BMP_pressure;BME280_temperature;BME280_humidity;BME280_pressure;Samples;Min_cycle;Max_cycle;Signal;HPM_P1;HPM_P2
2021/11/25 00:01:50;;;;;;;3.38;1.90;;;16.00;99.90;;;;;;5029015;28;20092;-76
2021/11/25 00:04:16;;;;;;;5.60;1.92;;;16.00;99.90;;;;;;5030110;28;20052;-76
2021/11/25 00:06:42;;;;;;;7.90;2.13;;;16.00;99.90;;;;;;5033476;28;20041;-76
2021/11/25 00:09:08;;;;;;;5.05;2.13;;;16.00;99.90;;;;;;5032528;28;20552;-76
2021/11/25 00:11:34;;;;;;;4.47;1.92;;;16.00;99.90;;;;;;5033407;28;20045;-76
2021/11/25 00:14:00;;;;;;;3.95;2.15;;;16.00;99.90;;;;;;5032628;28;20108;-76
2021/11/25 00:16:25;;;;;;;3.25;2.30;;;16.00;99.90;;;;;;5018194;28;20042;-76
2021/11/25 00:18:51;;;;;;;3.72;2.20;;;15.90;99.90;;;;;;5033261;28;20480;-77
2021/11/25 00:21:17;;;;;;;7.50;2.63;;;15.90;99.90;;;;;;5031322;28;20188;-76
2021/11/25 00:23:44;;;;;;;5.43;1.88;;;15.90;99.90;;;;;;5032118;28;20508;-76
2021/11/25 00:26:10;;;;;;;3.63;2.45;;;15.90;99.90;;;;;;5032418;28;20080;-76
2021/11/25 00:28:36;;;;;;;2.60;1.67;;;15.90;99.90;;;;;;5026835;28;20084;-76
2021/11/25 00:31:02;;;;;;;2.00;1.90;;;15.90;99.90;;;;;;5023508;28;21011;-76
2021/11/25 00:33:29;;;;;;;2.67;2.17;;;15.90;99.90;;;;;;5030198;28;20037;-76
2021/11/25 00:35:55;;;;;;;13.40;2.05;;;15.90;99.90;;;;;;5018575;28;20490;-76
2021/11/25 00:38:21;;;;;;;3.35;2.28;;;15.90;99.90;;;;;;5020914;28;20057;-76
2021/11/25 00:40:46;;;;;;;3.47;2.25;;;15.80;99.90;;;;;;5023033;28;20045;-76
2021/11/25 00:43:12;;;;;;;4.50;2.17;;;15.80;99.90;;;;;;5023746;28;20402;-76
2021/11/25 00:45:38;;;;;;;3.15;2.00;;;15.80;99.90;;;;;;5022390;28;20042;-76
2021/11/25 00:48:04;;;;;;;3.70;2.25;;;15.80;99.90;;;;;;4994997;28;20060;-77
2021/11/25 00:50:30;;;;;;;8.10;2.97;;;15.80;99.90;;;;;;5024134;28;20060;-76
2021/11/25 00:52:56;;;;;;;2.17;1.98;;;15.80;99.90;;;;;;5019483;28;20046;-76
2021/11/25 00:55:22;;;;;;;4.18;2.45;;;15.70;99.90;;;;;;5020881;28;20044;-75
2021/11/25 00:57:48;;;;;;;5.15;2.80;;;15.70;99.90;;;;;;5018933;28;20054;-76
2021/11/25 01:00:17;;;;;;;3.05;2.47;;;15.70;99.90;;;;;;5020036;28;20042;-76
2021/11/25 01:02:44;;;;;;;2.78;2.53;;;15.70;99.90;;;;;;5029910;28;20045;-76
2021/11/25 01:05:11;;;;;;;3.53;3.00;;;15.70;99.90;;;;;;5031695;28;20076;-75
2021/11/25 01:07:38;;;;;;;3.97;2.53;;;15.70;99.90;;;;;;5031294;28;20046;-76
2021/11/25 01:10:05;;;;;;;3.92;2.40;;;15.70;99.90;;;;;;5030316;28;20049;-77
2021/11/25 01:12:31;;;;;;;2.80;2.60;;;15.70;99.90;;;;;;5030661;28;20060;-76
2021/11/25 01:14:57;;;;;;;3.00;2.70;;;15.70;99.90;;;;;;5021343;28;20041;-76
2021/11/25 01:17:24;;;;;;;3.13;2.90;;;15.60;99.90;;;;;;5030750;28;20073;-75
2021/11/25 01:19:50;;;;;;;3.17;2.67;;;15.70;99.90;;;;;;5029792;28;20107;-75
2021/11/25 01:22:16;;;;;;;4.30;2.70;;;15.60;99.90;;;;;;5030117;28;20068;-76
2021/11/25 01:24:42;;;;;;;4.88;3.05;;;15.60;99.90;;;;;;5030448;28;20046;-76
2021/11/25 01:27:07;;;;;;;5.13;3.13;;;15.60;99.90;;;;;;5029963;28;20049;-75
2021/11/25 01:29:33;;;;;;;3.42;3.13;;;15.60;99.90;;;;;;5017653;28;20057;-76
2021/11/25 01:31:59;;;;;;;3.30;3.00;;;15.60;99.90;;;;;;5024784;28;20414;-76
2021/11/25 01:34:25;;;;;;;3.10;2.80;;;15.60;99.90;;;;;;5012785;28;20092;-73
2021/11/25 01:36:50;;;;;;;4.10;2.47;;;15.60;99.90;;;;;;5029032;28;20045;-76
2021/11/25 01:39:17;;;;;;;3.60;2.20;;;15.60;99.90;;;;;;5030931;28;20045;-76
2021/11/25 01:41:44;;;;;;;8.00;2.70;;;15.60;99.90;;;;;;5028366;28;20057;-76
2021/11/25 01:44:10;;;;;;;2.63;2.42;;;15.60;99.90;;;;;;5023381;28;20494;-77
2021/11/25 01:46:36;;;;;;;6.63;2.88;;;15.50;99.90;;;;;;5028532;28;20047;-76
2021/11/25 01:49:02;;;;;;;3.03;2.85;;;15.50;99.90;;;;;;5022037;28;20045;-77
2021/11/25 01:51:28;;;;;;;4.47;3.17;;;15.50;99.90;;;;;;5029994;28;20128;-76
2021/11/25 01:53:54;;;;;;;3.90;2.90;;;15.50;99.90;;;;;;5016462;28;20132;-76
2021/11/25 01:56:20;;;;;;;4.20;2.95;;;15.50;99.90;;;;;;5030758;28;20049;-76
2021/11/25 01:58:47;;;;;;;5.82;3.03;;;15.50;99.90;;;;;;5030054;28;20132;-76
2021/11/25 02:01:15;;;;;;;7.80;3.10;;;15.50;99.90;;;;;;5030693;28;20042;-77
2021/11/25 02:03:41;;;;;;;4.45;2.85;;;15.50;99.90;;;;;;5051319;28;20080;-76
2021/11/25 02:06:08;;;;;;;3.40;2.85;;;15.50;99.90;;;;;;5013564;28;20112;-77
2021/11/25 02:08:35;;;;;;;5.45;2.97;;;15.40;99.90;;;;;;5029407;28;20535;-76
2021/11/25 02:11:01;;;;;;;3.20;2.90;;;15.40;99.90;;;;;;5029870;28;20103;-76
2021/11/25 02:13:27;;;;;;;3.70;2.97;;;15.40;99.90;;;;;;5030488;28;20846;-76
2021/11/25 02:15:53;;;;;;;4.95;3.78;;;15.40;99.90;;;;;;5020982;28;20080;-76
2021/11/25 02:18:22;;;;;;;4.38;3.13;;;15.40;99.90;;;;;;5030376;28;20129;-76
2021/11/25 02:20:52;;;;;;;3.13;2.78;;;15.40;99.90;;;;;;5030732;28;20045;-76
2021/11/25 02:23:20;;;;;;;3.42;3.13;;;15.40;99.90;;;;;;5026965;28;20378;-76
2021/11/25 02:25:47;;;;;;;3.45;3.15;;;15.40;99.90;;;;;;5023334;28;20050;-76
2021/11/25 02:28:13;;;;;;;3.30;3.00;;;15.30;99.90;;;;;;5028231;28;20114;-77
2021/11/25 02:30:39;;;;;;;3.90;3.03;;;15.40;99.90;;;;;;5030753;28;20060;-76
2021/11/25 02:33:06;;;;;;;3.22;3.00;;;15.40;99.90;;;;;;5002937;28;20112;-76
2021/11/25 02:35:35;;;;;;;6.03;3.42;;;15.40;99.90;;;;;;5030074;28;20049;-76
2021/11/25 02:38:02;;;;;;;3.83;3.47;;;15.30;99.90;;;;;;5030595;28;20085;-76
2021/11/25 02:40:52;;;;;;;3.88;3.38;;;15.30;99.90;;;;;;5030040;28;20049;-76
2021/11/25 02:43:26;;;;;;;5.32;3.60;;;15.30;99.90;;;;;;5029705;28;20668;-76
2021/11/25 02:45:59;;;;;;;4.00;3.47;;;15.30;99.90;;;;;;5021959;28;20049;-76
2021/11/25 02:48:31;;;;;;;4.03;3.67;;;15.30;99.90;;;;;;5029838;28;20041;-76
2021/11/25 02:51:00;;;;;;;3.65;3.15;;;15.20;99.90;;;;;;5030465;28;20045;-76
2021/11/25 02:53:31;;;;;;;5.60;3.25;;;15.30;99.90;;;;;;5028014;28;20049;-76
2021/11/25 02:55:59;;;;;;;4.82;3.42;;;15.20;99.90;;;;;;5045809;28;20042;-76
2021/11/25 02:58:26;;;;;;;3.85;3.50;;;15.30;99.90;;;;;;5027637;28;20049;-76
2021/11/25 03:00:55;;;;;;;3.75;3.15;;;15.20;99.90;;;;;;5030055;28;20049;-76
2021/11/25 03:03:21;;;;;;;3.63;3.33;;;15.20;99.90;;;;;;5028327;28;20110;-76
2021/11/25 03:05:49;;;;;;;4.38;3.38;;;15.20;99.90;;;;;;5029042;28;20049;-76
2021/11/25 03:08:16;;;;;;;3.85;3.50;;;15.20;99.90;;;;;;5027986;28;20065;-76
2021/11/25 03:11:06;;;;;;;4.22;3.55;;;15.20;99.90;;;;;;5026063;28;20050;-76
2021/11/25 03:13:33;;;;;;;3.40;3.13;;;15.20;99.90;;;;;;5012029;28;20910;-76
2021/11/25 03:15:59;;;;;;;3.92;3.50;;;15.10;99.90;;;;;;5028608;28;20083;-76
2021/11/25 03:18:26;;;;;;;3.50;3.20;;;15.20;99.90;;;;;;5028045;28;20045;-76
2021/11/25 03:20:54;;;;;;;3.95;3.58;;;15.20;99.90;;;;;;5029578;28;20057;-76
2021/11/25 03:23:22;;;;;;;5.38;3.42;;;15.10;99.90;;;;;;5029373;28;20045;-76
2021/11/25 03:25:49;;;;;;;5.18;3.53;;;15.10;99.90;;;;;;5028469;28;20049;-77
2021/11/25 03:28:16;;;;;;;4.63;3.42;;;15.10;99.90;;;;;;5028627;28;20140;-77
2021/11/25 03:30:42;;;;;;;4.80;4.25;;;15.10;99.90;;;;;;5025265;28;20482;-76
2021/11/25 03:33:10;;;;;;;3.90;3.60;;;15.10;99.90;;;;;;5028391;28;20045;-76
2021/11/25 03:35:37;;;;;;;4.15;3.78;;;15.10;99.90;;;;;;5026279;28;20073;-77
2021/11/25 03:38:04;;;;;;;4.80;3.60;;;15.10;99.90;;;;;;5026593;28;20049;-76
2021/11/25 03:40:30;;;;;;;4.25;3.85;;;15.10;99.90;;;;;;5029098;28;20061;-77
2021/11/25 03:42:56;;;;;;;4.60;4.13;;;15.00;99.90;;;;;;5029481;28;20044;-76
2021/11/25 03:45:22;;;;;;;4.78;3.90;;;15.00;99.90;;;;;;5029154;28;20049;-77
2021/11/25 03:47:48;;;;;;;4.20;3.42;;;15.00;99.90;;;;;;5039401;28;20116;-76
2021/11/25 03:50:15;;;;;;;4.25;3.60;;;15.00;99.90;;;;;;5028522;28;20370;-76
2021/11/25 03:52:41;;;;;;;4.00;3.60;;;15.00;99.90;;;;;;5028955;28;20107;-76
2021/11/25 03:55:09;;;;;;;4.95;4.00;;;15.00;99.90;;;;;;5015878;28;20061;-76
2021/11/25 03:57:35;;;;;;;4.25;3.85;;;15.00;99.90;;;;;;5027580;28;20053;-76
2021/11/25 04:00:03;;;;;;;5.15;3.92;;;15.00;99.90;;;;;;5011942;28;20049;-76
2021/11/25 04:02:29;;;;;;;3.70;3.33;;;15.00;99.90;;;;;;5028930;28;20131;-76
2021/11/25 04:04:55;;;;;;;3.92;3.63;;;15.00;99.90;;;;;;5027627;28;20104;-76
2021/11/25 04:07:21;;;;;;;4.43;4.03;;;15.00;99.90;;;;;;5028965;28;20473;-76
2021/11/25 04:09:46;;;;;;;4.65;3.45;;;15.00;99.90;;;;;;5028325;28;20041;-76
2021/11/25 04:12:12;;;;;;;5.43;4.25;;;14.90;99.90;;;;;;5029372;28;20099;-76
2021/11/25 04:14:38;;;;;;;4.30;3.80;;;15.00;99.90;;;;;;5027445;28;20073;-76
2021/11/25 04:17:04;;;;;;;3.58;3.28;;;14.90;99.90;;;;;;5029342;28;20050;-76
2021/11/25 04:19:29;;;;;;;6.00;4.55;;;14.90;99.90;;;;;;5027525;28;20041;-76
2021/11/25 04:21:55;;;;;;;4.25;3.83;;;14.90;99.90;;;;;;5029301;28;20045;-76
2021/11/25 04:24:21;;;;;;;4.55;4.03;;;14.90;99.90;;;;;;5027635;28;20489;-77
2021/11/25 04:26:47;;;;;;;4.13;3.72;;;14.90;99.90;;;;;;5033602;28;20045;-77
2021/11/25 04:29:13;;;;;;;5.03;4.13;;;14.90;99.90;;;;;;5029082;28;20064;-76
2021/11/25 04:37:11;;;;;;;5.85;3.85;;;14.80;99.90;;;;;;5021333;28;20497;-76
2021/11/25 04:39:36;;;;;;;4.75;4.25;;;14.80;99.90;;;;;;5028357;28;20049;-77
2021/11/25 04:42:02;;;;;;;5.40;3.97;;;14.80;99.90;;;;;;5028067;28;20052;-76
2021/11/25 04:44:28;;;;;;;7.43;4.30;;;14.80;99.90;;;;;;5028694;28;20417;-76
2021/11/25 04:46:54;;;;;;;4.57;3.92;;;14.80;99.90;;;;;;5019424;28;20062;-76
2021/11/25 04:49:20;;;;;;;4.60;4.20;;;14.80;99.90;;;;;;5008083;28;20693;-76
2021/11/25 04:51:45;;;;;;;5.13;4.15;;;14.80;99.90;;;;;;5028388;28;20056;-76
2021/11/25 04:54:11;;;;;;;5.13;3.97;;;14.70;99.90;;;;;;5032687;28;20045;-76
2021/11/25 04:56:37;;;;;;;5.82;4.47;;;14.70;99.90;;;;;;5029987;28;20683;-76
2021/11/25 04:59:03;;;;;;;4.72;3.72;;;14.80;99.90;;;;;;5047890;28;20382;-76
2021/11/25 05:01:28;;;;;;;5.63;4.13;;;14.70;99.90;;;;;;5030852;28;20128;-76
2021/11/25 05:03:54;;;;;;;5.10;3.95;;;14.80;99.90;;;;;;5018657;28;20088;-77
2021/11/25 05:06:20;;;;;;;6.63;4.18;;;14.70;99.90;;;;;;5030799;28;20049;-76
2021/11/25 05:08:45;;;;;;;4.85;3.92;;;14.70;99.90;;;;;;5031143;28;20049;-76
2021/11/25 05:11:13;;;;;;;3.85;3.53;;;14.70;99.90;;;;;;5017654;28;20049;-76
2021/11/25 05:13:39;;;;;;;4.57;4.00;;;14.70;99.90;;;;;;5030157;28;20546;-77
2021/11/25 05:16:05;;;;;;;4.70;4.10;;;14.70;99.90;;;;;;5032043;28;20386;-76
2021/11/25 05:18:31;;;;;;;4.25;3.85;;;14.70;99.90;;;;;;5030396;28;20046;-76
2021/11/25 05:20:57;;;;;;;6.45;4.30;;;14.70;99.90;;;;;;5031944;28;20091;-76
2021/11/25 05:23:23;;;;;;;5.40;4.57;;;14.70;99.90;;;;;;5031354;28;20525;-77
2021/11/25 05:25:48;;;;;;;5.32;4.05;;;14.60;99.90;;;;;;5026645;28;20053;-77
2021/11/25 05:28:14;;;;;;;6.00;4.68;;;14.60;99.90;;;;;;5032005;28;20045;-76
2021/11/25 05:30:40;;;;;;;4.65;4.20;;;14.60;99.90;;;;;;5031375;28;20088;-76
2021/11/25 05:33:06;;;;;;;5.65;4.45;;;14.60;99.90;;;;;;5045331;28;20046;-76
2021/11/25 05:35:32;;;;;;;5.78;4.05;;;14.50;99.90;;;;;;5042250;28;20528;-76
2021/11/25 05:37:58;;;;;;;5.20;4.38;;;14.60;99.90;;;;;;5031651;28;20111;-76
2021/11/25 05:40:24;;;;;;;6.47;4.25;;;14.50;99.90;;;;;;5031193;28;20037;-76
2021/11/25 05:42:50;;;;;;;5.53;4.55;;;14.50;99.90;;;;;;5031027;28;20041;-77
2021/11/25 05:45:18;;;;;;;8.15;5.47;;;14.50;99.90;;;;;;5031038;28;20038;-76
2021/11/25 05:47:46;;;;;;;4.55;4.13;;;14.50;99.90;;;;;;5031009;28;20520;-76
2021/11/25 05:50:18;;;;;;;5.90;4.18;;;14.50;99.90;;;;;;5030386;28;20124;-75
2021/11/25 05:52:48;;;;;;;6.53;4.05;;;14.50;99.90;;;;;;5030411;28;20080;-76
2021/11/25 05:55:14;;;;;;;;;;;14.50;99.90;;;;;;5030036;28;20175;-76
2021/11/25 05:57:40;;;;;;;5.82;4.40;;;14.50;99.90;;;;;;5029627;28;19925;-76
2021/11/25 06:00:11;;;;;;;5.93;4.90;;;14.50;99.90;;;;;;5028531;28;20107;-76
2021/11/25 06:02:41;;;;;;;7.45;4.93;;;14.50;99.90;;;;;;5028526;28;20520;-77
2021/11/25 06:05:08;;;;;;;5.28;4.30;;;14.50;99.90;;;;;;5032431;28;20050;-76
2021/11/25 06:07:34;;;;;;;6.43;4.40;;;14.50;99.90;;;;;;5026927;28;20050;-77
2021/11/25 06:10:00;;;;;;;5.43;4.68;;;14.40;99.90;;;;;;5028157;28;20114;-76
2021/11/25 06:12:25;;;;;;;6.40;4.60;;;14.40;99.90;;;;;;5046124;28;20116;-77
2021/11/25 06:14:51;;;;;;;6.28;4.70;;;14.40;99.90;;;;;;5030769;28;20045;-77
2021/11/25 06:17:17;;;;;;;6.03;4.43;;;14.40;99.90;;;;;;5021083;28;20077;-77
2021/11/25 06:19:42;;;;;;;7.40;4.75;;;14.40;99.90;;;;;;5025664;28;20485;-77
2021/11/25 06:22:08;;;;;;;7.18;4.78;;;14.40;99.90;;;;;;5023281;28;20095;-77
2021/11/25 06:24:35;;;;;;;6.90;4.63;;;14.40;99.90;;;;;;5030379;28;20073;-77
2021/11/25 06:27:00;;;;;;;5.05;4.55;;;14.40;99.90;;;;;;5027801;28;20370;-77
2021/11/25 06:29:26;;;;;;;6.45;4.63;;;14.40;99.90;;;;;;5026579;28;20123;-77
2021/11/25 06:31:52;;;;;;;5.63;4.50;;;14.40;99.90;;;;;;5027768;28;20042;-77
2021/11/25 06:34:18;;;;;;;5.32;4.72;;;14.40;99.90;;;;;;5030700;28;20077;-77
2021/11/25 06:36:44;;;;;;;5.30;4.50;;;14.40;99.90;;;;;;5030140;28;20451;-77
2021/11/25 06:39:10;;;;;;;6.18;4.38;;;14.50;99.90;;;;;;5029653;28;20075;-77
2021/11/25 06:41:36;;;;;;;4.80;4.00;;;14.50;99.90;;;;;;5029939;28;20374;-77
2021/11/25 06:44:03;;;;;;;4.90;4.40;;;14.50;99.90;;;;;;5030769;28;20509;-77
2021/11/25 06:46:28;;;;;;;5.32;4.43;;;14.60;99.90;;;;;;5012913;28;20041;-77
2021/11/25 06:48:54;;;;;;;5.13;3.92;;;14.70;99.90;;;;;;5028916;28;20087;-77
2021/11/25 06:51:20;;;;;;;5.75;4.43;;;14.70;99.90;;;;;;5029306;28;20132;-76
2021/11/25 06:53:46;;;;;;;4.78;3.80;;;14.70;99.90;;;;;;5029730;28;20397;-77
2021/11/25 06:56:12;;;;;;;4.25;3.85;;;14.80;99.90;;;;;;5029451;28;20053;-77
2021/11/25 06:58:38;;;;;;;4.75;4.00;;;14.90;99.90;;;;;;5028814;28;20045;-77
2021/11/25 07:01:07;;;;;;;4.55;4.10;;;15.00;99.90;;;;;;5028777;28;20091;-77
2021/11/25 07:03:33;;;;;;;3.67;3.35;;;15.00;99.90;;;;;;5029708;28;20048;-77
2021/11/25 07:06:01;;;;;;;5.70;4.60;;;15.10;99.90;;;;;;5030216;28;20532;-77
2021/11/25 07:08:27;;;;;;;5.40;3.90;;;15.10;99.90;;;;;;5028107;28;20053;-77
2021/11/25 07:10:53;;;;;;;4.85;4.32;;;15.20;99.90;;;;;;5011771;28;20049;-77
2021/11/25 07:13:19;;;;;;;5.00;3.92;;;15.20;99.90;;;;;;5027313;28;20060;-77
2021/11/25 07:15:44;;;;;;;4.40;3.50;;;15.30;99.90;;;;;;5028214;28;20056;-76
2021/11/25 07:18:10;;;;;;;6.80;4.60;;;15.30;99.90;;;;;;5030050;28;20053;-77
2021/11/25 07:20:36;;;;;;;6.75;4.22;;;15.30;99.90;;;;;;5026009;28;20071;-77
2021/11/25 07:23:02;;;;;;;5.75;4.22;;;15.40;99.90;;;;;;5045081;28;20038;-77
2021/11/25 07:25:28;;;;;;;5.07;4.15;;;15.40;99.90;;;;;;5029924;28;20045;-77
2021/11/25 07:27:54;;;;;;;4.50;3.72;;;15.40;99.90;;;;;;5029203;28;20037;-77
2021/11/25 07:30:20;;;;;;;5.20;4.18;;;15.40;99.90;;;;;;5028914;28;20431;-77
2021/11/25 07:32:47;;;;;;;5.13;4.15;;;15.40;99.90;;;;;;5027675;28;20049;-76
2021/11/25 07:35:14;;;;;;;6.63;4.47;;;15.40;99.90;;;;;;5029799;28;20049;-77
2021/11/25 07:37:40;;;;;;;5.13;4.25;;;15.40;99.90;;;;;;5029351;28;20053;-77
2021/11/25 07:40:07;;;;;;;5.22;4.47;;;15.40;99.90;;;;;;5028880;28;20568;-77
2021/11/25 07:42:33;;;;;;;6.47;4.70;;;15.50;99.90;;;;;;5029545;28;20481;-76
2021/11/25 07:44:59;;;;;;;7.85;4.70;;;15.40;99.90;;;;;;5027314;28;20053;-77
2021/11/25 07:47:32;;;;;;;6.72;4.13;;;15.50;99.90;;;;;;5010995;28;20045;-77
2021/11/25 07:49:59;;;;;;;7.93;4.72;;;15.50;99.90;;;;;;5026276;28;20260;-77
2021/11/25 07:52:25;;;;;;;6.07;4.70;;;15.50;99.90;;;;;;5029420;28;20054;-77
2021/11/25 07:54:51;;;;;;;6.60;4.85;;;15.50;99.90;;;;;;5028751;28;20068;-77
2021/11/25 07:57:16;;;;;;;5.95;5.05;;;15.50;99.90;;;;;;5020096;28;20049;-77
2021/11/25 07:59:42;;;;;;;7.30;5.40;;;15.50;99.90;;;;;;5025153;28;20045;-77
2021/11/25 08:02:08;;;;;;;8.10;5.68;;;15.50;99.90;;;;;;5028617;28;20048;-77
2021/11/25 08:04:33;;;;;;;7.43;5.13;;;15.50;99.90;;;;;;5015563;28;20077;-77
2021/11/25 08:06:59;;;;;;;6.53;5.25;;;15.50;99.90;;;;;;5024624;28;20050;-75
2021/11/25 08:09:25;;;;;;;6.63;5.28;;;15.40;99.90;;;;;;5028848;28;20064;-76
2021/11/25 08:11:50;;;;;;;6.25;5.20;;;15.40;99.90;;;;;;5027589;28;20049;-76
2021/11/25 08:14:16;;;;;;;5.95;5.18;;;15.50;99.90;;;;;;5027033;28;20037;-77
2021/11/25 08:16:42;;;;;;;7.65;5.90;;;15.50;99.90;;;;;;5019471;28;20045;-76
2021/11/25 08:19:07;;;;;;;6.63;5.00;;;15.50;99.90;;;;;;5018304;28;20057;-77
2021/11/25 08:21:33;;;;;;;7.50;5.30;;;15.50;99.90;;;;;;5023367;28;20041;-77
2021/11/25 08:24:00;;;;;;;6.53;5.10;;;15.50;99.90;;;;;;5028252;28;20046;-77
2021/11/25 08:26:25;;;;;;;6.13;5.53;;;15.50;99.90;;;;;;5031881;28;20041;-77
2021/11/25 08:28:51;;;;;;;6.00;5.07;;;15.50;99.90;;;;;;5027513;28;20132;-78
2021/11/25 08:31:17;;;;;;;7.45;5.50;;;15.50;99.90;;;;;;5026702;28;20048;-77
2021/11/25 08:33:42;;;;;;;6.82;5.22;;;15.50;99.90;;;;;;5017933;28;20052;-79
2021/11/25 08:36:08;;;;;;;6.30;4.82;;;15.50;99.90;;;;;;5024264;28;20107;-78
2021/11/25 08:38:34;;;;;;;5.55;4.60;;;15.50;99.90;;;;;;5027124;28;20064;-74
2021/11/25 08:41:01;;;;;;;5.80;4.40;;;15.60;99.90;;;;;;5017796;28;20077;-75
2021/11/25 08:43:28;;;;;;;5.32;4.75;;;15.60;99.90;;;;;;5026508;28;20041;-75
2021/11/25 08:45:54;;;;;;;6.18;4.72;;;15.50;99.90;;;;;;5022744;28;20080;-75
2021/11/25 08:48:19;;;;;;;4.72;4.20;;;15.60;99.90;;;;;;5025551;28;20041;-75
2021/11/25 08:50:45;;;;;;;5.60;4.47;;;15.60;99.90;;;;;;5022761;28;20044;-75
2021/11/25 08:53:12;;;;;;;5.28;4.45;;;15.60;99.90;;;;;;5022458;28;20149;-74
2021/11/25 08:55:38;;;;;;;5.30;4.30;;;15.50;99.90;;;;;;5031949;28;20532;-75
2021/11/25 08:58:05;;;;;;;5.28;4.45;;;15.60;99.90;;;;;;5031342;28;20045;-75
2021/11/25 09:00:33;;;;;;;7.57;4.63;;;15.60;99.90;;;;;;5030095;28;20053;-77
2021/11/25 09:03:02;;;;;;;4.78;4.22;;;15.60;99.90;;;;;;5031204;28;20041;-75
2021/11/25 09:05:29;;;;;;;10.93;5.35;;;15.60;99.90;;;;;;5030588;28;20049;-75
2021/11/25 09:07:55;;;;;;;8.45;5.72;;;15.70;99.90;;;;;;5031224;28;20121;-75
2021/11/25 09:10:21;;;;;;;6.18;5.20;;;15.60;99.90;;;;;;5030799;28;20053;-75
2021/11/25 09:12:48;;;;;;;11.23;6.05;;;15.60;99.90;;;;;;5018614;28;20053;-75
2021/11/25 09:15:15;;;;;;;7.38;5.75;;;15.70;99.90;;;;;;5021349;28;20084;-75
2021/11/25 09:17:40;;;;;;;8.45;5.88;;;15.70;99.90;;;;;;5022754;28;20127;-75
2021/11/25 09:20:08;;;;;;;18.10;6.43;;;15.60;99.90;;;;;;5019692;28;20489;-75
2021/11/25 09:22:34;;;;;;;10.07;6.10;;;15.60;99.90;;;;;;5026117;28;20095;-75
2021/11/25 09:25:00;;;;;;;8.80;6.38;;;15.60;99.90;;;;;;5023147;28;20057;-75
2021/11/25 09:27:25;;;;;;;7.32;6.28;;;15.50;99.90;;;;;;5018232;28;20050;-75
2021/11/25 09:29:51;;;;;;;8.85;6.53;;;15.50;99.90;;;;;;5021092;28;20051;-75
2021/11/25 09:32:17;;;;;;;11.25;5.90;;;15.50;99.90;;;;;;5027494;28;20084;-75
2021/11/25 09:34:43;;;;;;;10.48;5.28;;;15.50;99.90;;;;;;5024425;28;20053;-74
2021/11/25 09:37:09;;;;;;;9.95;5.30;;;15.50;99.90;;;;;;5017072;28;20112;-75
2021/11/25 09:39:35;;;;;;;7.22;5.45;;;15.50;99.90;;;;;;5012580;28;20111;-75
2021/11/25 09:42:01;;;;;;;9.63;5.75;;;15.50;99.90;;;;;;5010692;28;20053;-74
2021/11/25 09:44:27;;;;;;;6.40;5.15;;;15.60;99.90;;;;;;5022296;28;20606;-75
2021/11/25 09:46:55;;;;;;;7.20;5.70;;;15.60;99.90;;;;;;5020035;28;20462;-75
2021/11/25 09:49:23;;;;;;;7.38;5.32;;;15.60;99.90;;;;;;5018160;28;20057;-75
2021/11/25 09:51:50;;;;;;;6.90;5.70;;;15.60;99.90;;;;;;5013965;28;20058;-75
2021/11/25 09:54:16;;;;;;;8.55;6.38;;;15.60;99.90;;;;;;4993877;28;20100;-75
2021/11/25 09:56:42;;;;;;;6.40;5.75;;;15.70;99.90;;;;;;5025730;28;20107;-75
2021/11/25 09:59:08;;;;;;;6.95;5.43;;;15.70;99.90;;;;;;5025195;28;20112;-74
2021/11/25 10:01:34;;;;;;;11.88;5.65;;;15.80;99.90;;;;;;5023511;28;20077;-75
2021/11/25 10:04:00;;;;;;;9.25;5.75;;;15.80;99.90;;;;;;5015319;28;20057;-75
2021/11/25 10:06:37;;;;;;;6.68;5.32;;;15.80;99.90;;;;;;5014965;28;20041;-75
2021/11/25 10:09:04;;;;;;;9.75;5.57;;;15.80;99.90;;;;;;5023953;28;20056;-74
2021/11/25 10:11:32;;;;;;;5.70;4.97;;;15.80;99.90;;;;;;5029032;28;20096;-74
2021/11/25 10:14:07;;;;;;;6.40;5.10;;;15.90;99.90;;;;;;5028328;28;20045;-74
2021/11/25 10:16:38;;;;;;;6.65;4.90;;;15.90;99.90;;;;;;5030575;28;20038;-74
2021/11/25 10:19:20;;;;;;;10.32;5.20;;;15.90;99.90;;;;;;5029932;28;20049;-74
2021/11/25 10:22:10;;;;;;;8.05;5.15;;;15.90;99.90;;;;;;5022947;28;20099;-74
2021/11/25 10:24:48;;;;;;;10.02;5.10;;;16.00;99.90;;;;;;5021154;28;20056;-74
2021/11/25 10:27:21;;;;;;;8.63;5.10;;;16.00;99.90;;;;;;5022387;28;20138;-74
2021/11/25 10:29:49;;;;;;;8.77;4.82;;;16.00;99.90;;;;;;5022989;28;20081;-75
2021/11/25 10:32:20;;;;;;;9.80;4.75;;;16.00;99.90;;;;;;5025967;28;20042;-74
2021/11/25 10:40:33;;;;;;;6.22;5.03;;;16.30;99.90;;;;;;5029025;28;20049;-74
2021/11/25 10:42:58;;;;;;;5.30;4.30;;;16.40;99.90;;;;;;5028516;28;20227;-73
2021/11/25 10:45:25;;;;;;;6.47;4.25;;;16.30;99.90;;;;;;5011419;28;20140;-73
2021/11/25 10:48:04;;;;;;;8.93;4.47;;;16.40;99.90;;;;;;5025052;28;20053;-76
2021/11/25 10:50:31;;;;;;;7.77;4.17;;;16.40;99.90;;;;;;5026188;28;20050;-73
2021/11/25 10:53:09;;;;;;;5.03;4.00;;;16.50;99.90;;;;;;5025014;28;20319;-75
2021/11/25 10:55:37;;;;;;;4.60;4.10;;;16.40;99.90;;;;;;5026455;28;20060;-74
2021/11/25 10:58:05;;;;;;;9.38;4.05;;;16.40;99.90;;;;;;5018039;28;20148;-75
2021/11/25 11:00:34;;;;;;;6.03;3.63;;;16.40;99.90;;;;;;5028188;28;20053;-75
2021/11/25 11:03:29;;;;;;;7.05;4.55;;;16.30;99.90;;;;;;5025893;28;20102;-75
2021/11/25 11:06:03;;;;;;;6.03;3.78;;;16.30;99.90;;;;;;5024940;28;20375;-75
2021/11/25 11:08:41;;;;;;;7.32;3.85;;;16.30;99.90;;;;;;5010965;28;20171;-75
2021/11/25 11:11:07;;;;;;;9.95;3.72;;;16.40;99.90;;;;;;5027700;28;20103;-75
2021/11/25 11:13:41;;;;;;;5.30;3.95;;;16.80;99.90;;;;;;5023245;28;20044;-75
2021/11/25 11:16:23;;;;;;;4.13;3.63;;;16.90;99.90;;;;;;5028223;28;20056;-75
2021/11/25 11:18:58;;;;;;;5.70;3.60;;;16.80;99.90;;;;;;5028870;28;20091;-75
2021/11/25 11:21:28;;;;;;;5.47;3.38;;;16.70;99.90;;;;;;5024915;28;20042;-75
2021/11/25 11:23:56;;;;;;;5.97;3.38;;;16.70;99.90;;;;;;5026901;28;20127;-75
2021/11/25 11:26:21;;;;;;;4.95;3.55;;;16.70;99.90;;;;;;5026054;28;20457;-75
2021/11/25 11:28:47;;;;;;;6.78;3.28;;;16.80;99.90;;;;;;5026546;28;20087;-74
2021/11/25 11:31:14;;;;;;;6.30;3.33;;;16.80;99.90;;;;;;5027679;28;20065;-75
2021/11/25 11:33:40;;;;;;;4.72;3.15;;;16.70;99.90;;;;;;5008396;28;20053;-74
2021/11/25 11:36:06;;;;;;;6.45;2.97;;;16.70;99.90;;;;;;5025962;28;20049;-75
2021/11/25 11:38:33;;;;;;;5.65;3.10;;;16.70;99.90;;;;;;5026304;28;20489;-75
2021/11/25 11:40:59;;;;;;;4.43;2.70;;;16.70;99.90;;;;;;5023272;28;20053;-75
2021/11/25 11:43:26;;;;;;;3.25;2.10;;;16.70;99.90;;;;;;5018162;28;20043;-75
2021/11/25 11:45:52;;;;;;;4.60;2.47;;;16.70;99.90;;;;;;5025779;28;20041;-75
2021/11/25 11:48:18;;;;;;;3.83;2.67;;;16.90;99.90;;;;;;5025841;28;20050;-75
2021/11/25 11:50:49;;;;;;;2.30;2.05;;;16.90;99.90;;;;;;5021185;28;20536;-76
2021/11/25 11:53:19;;;;;;;8.80;2.85;;;16.90;99.90;;;;;;5016379;28;20061;-75
2021/11/25 11:55:49;;;;;;;4.88;2.60;;;16.90;99.90;;;;;;5020503;28;20101;-75
2021/11/25 11:58:34;;;;;;;;;;;16.80;99.90;;;;;;5023153;28;20430;-76
2021/11/25 12:01:23;;;;;;;2.22;2.03;;;16.80;99.90;;;;;;5017312;28;19932;-76
2021/11/25 12:03:58;;;;;;;5.10;2.28;;;16.90;99.90;;;;;;5021217;28;20102;-75
2021/11/25 12:06:30;;;;;;;2.80;2.08;;;17.00;99.90;;;;;;5018272;28;20045;-75
2021/11/25 12:08:57;;;;;;;9.45;2.55;;;17.10;99.90;;;;;;5018588;28;20045;-75
2021/11/25 12:11:22;;;;;;;13.27;2.30;;;17.10;99.90;;;;;;5031665;28;20626;-75
2021/11/25 12:13:56;;;;;;;4.78;2.10;;;17.00;99.90;;;;;;5027598;28;20038;-75
2021/11/25 12:16:22;;;;;;;4.60;2.03;;;16.90;99.90;;;;;;5016084;28;20532;-75
2021/11/25 12:18:53;;;;;;;8.00;2.28;;;16.90;99.90;;;;;;5020356;28;20121;-75
2021/11/25 12:21:44;;;;;;;5.85;2.30;;;16.80;99.90;;;;;;5027179;28;20124;-75
2021/11/25 12:24:18;;;;;;;6.60;2.13;;;16.70;99.90;;;;;;5030666;28;20049;-75
2021/11/25 12:27:05;;;;;;;7.68;2.30;;;16.70;99.90;;;;;;5022279;28;20048;-75
2021/11/25 12:30:01;;;;;;;9.50;2.20;;;16.70;99.90;;;;;;5028933;28;20076;-75
2021/11/25 12:32:36;;;;;;;5.65;2.17;;;16.70;99.90;;;;;;5026852;28;20054;-75
2021/11/25 12:35:14;;;;;;;5.72;2.03;;;16.70;99.90;;;;;;5018461;28;20486;-76
2021/11/25 12:37:49;;;;;;;8.07;2.78;;;16.70;99.90;;;;;;5019223;28;20084;-75
2021/11/25 12:40:18;;;;;;;19.98;2.33;;;16.70;99.90;;;;;;5030358;28;20053;-75
2021/11/25 12:42:50;;;;;;;5.57;2.03;;;16.70;99.90;;;;;;5025238;28;20041;-75
2021/11/25 12:45:28;;;;;;;6.95;2.00;;;16.70;99.90;;;;;;5021889;28;20045;-75
2021/11/25 12:48:09;;;;;;;6.10;2.20;;;16.70;99.90;;;;;;5018380;28;20072;-75
2021/11/25 12:50:41;;;;;;;4.28;1.70;;;16.70;99.90;;;;;;5020905;28;20057;-75
2021/11/25 12:53:07;;;;;;;3.60;1.98;;;16.70;99.90;;;;;;5021870;28;20062;-75
2021/11/25 12:55:33;;;;;;;6.75;1.80;;;16.70;99.90;;;;;;5018346;28;20037;-75
2021/11/25 12:57:59;;;;;;;9.98;2.10;;;16.70;99.90;;;;;;5014175;28;20402;-75
2021/11/25 13:00:28;;;;;;;1.85;1.50;;;16.70;99.90;;;;;;5018598;28;20056;-75
2021/11/25 13:03:05;;;;;;;1.77;1.45;;;16.70;99.90;;;;;;5015752;28;20398;-75